createdAt,value
2023-03-11T00:00:37.918Z,47.2
2023-03-11T00:20:37.903Z,47.14
2023-03-11T00:40:37.622Z,47.35
2023-03-11T01:00:37.895Z,47.2
2023-03-11T01:20:37.896Z,47.31
2023-03-11T01:40:37.889Z,47.04
2023-03-11T02:00:37.898Z,47.01
2023-03-11T02:20:37.627Z,46.98
2023-03-11T02:40:37.865Z,46.96
2023-03-11T03:00:37.609Z,46.95
2023-03-11T03:20:37.849Z,46.93
2023-03-11T03:40:37.837Z,46.92
2023-03-11T04:00:37.873Z,46.88
2023-03-11T04:20:37.845Z,46.84
2023-03-11T04:40:37.863Z,46.79
2023-03-11T05:00:37.832Z,46.73
2023-03-11T05:40:37.846Z,46.71
2023-03-11T06:00:37.840Z,46.68
2023-03-11T06:40:37.857Z,46.94
2023-03-11T07:00:37.843Z,47.01
2023-03-11T07:20:37.835Z,46.99
2023-03-11T07:40:37.835Z,46.94
2023-03-11T08:00:37.811Z,46.92
2023-03-11T08:20:37.539Z,46.9
2023-03-11T08:40:37.778Z,46.66
2023-03-11T09:00:37.811Z,46.5
2023-03-11T09:20:37.781Z,46.48
2023-03-11T10:20:37.713Z,46.17
2023-03-11T11:40:37.593Z,46
2023-03-11T12:00:37.296Z,45.96
2023-03-11T12:20:37.518Z,45.93
2023-03-11T12:40:37.512Z,45.9
2023-03-11T13:00:37.461Z,45.87
2023-03-11T13:20:37.466Z,45.83
2023-03-11T13:40:37.412Z,45.8
2023-03-11T14:00:37.476Z,45.78
2023-03-11T14:20:37.391Z,45.75
2023-03-11T14:40:37.283Z,45.7
2023-03-11T15:00:37.326Z,45.68
2023-03-11T15:20:37.429Z,45.61
2023-03-11T15:40:45.193Z,45.58
2023-03-11T16:00:37.196Z,45.55
2023-03-11T16:20:37.172Z,45.52
2023-03-11T16:40:37.136Z,45.49
2023-03-11T17:00:37.138Z,45.46
2023-03-11T17:20:37.126Z,45.55
2023-03-11T17:40:37.125Z,45.44
2023-03-11T18:00:37.105Z,45.39
2023-03-11T18:20:37.110Z,45.35
2023-03-11T18:40:37.105Z,45.29
2023-03-11T19:00:37.104Z,45.25
2023-03-11T19:20:37.111Z,45.22
2023-03-11T19:40:37.098Z,45.2
2023-03-11T20:00:37.122Z,45.16
2023-03-11T20:20:37.147Z,45.14
2023-03-11T20:40:37.141Z,45.12
2023-03-11T21:20:37.141Z,45.08
2023-03-11T21:40:37.197Z,45.05
2023-03-11T22:00:37.361Z,45.01
2023-03-11T22:20:37.175Z,44.96
2023-03-11T22:40:37.137Z,44.94
2023-03-11T23:00:37.146Z,44.91
2023-03-11T23:20:37.154Z,44.88
2023-03-11T23:40:37.136Z,44.86
